Time;durP1;ratioP1;P1;durP2;ratioP2;P2;SDS_P1;SDS_P2;PMS_P1;PMS_P2;Temp;Humidity;BMP_temperature;BMP_pressure;BME280_temperature;BME280_humidity;BME280_pressure;Samples;Min_cycle;Max_cycle;Signal;HPM_P1;HPM_P2
2022/11/22 00:02:12;;;;;;;0.30;0.30;;;;;;;7.81;76.59;98662.66;5167122;28;20046;-87
2022/11/22 00:04:42;;;;;;;3.83;1.27;;;;;;;7.82;76.96;98664.34;5155818;28;20033;-88
2022/11/22 00:07:13;;;;;;;0.88;0.88;;;;;;;7.84;76.44;98668.59;5155592;28;20056;-88
2022/11/22 00:09:43;;;;;;;1.50;0.60;;;;;;;7.83;76.30;98660.84;5167852;28;20038;-86
2022/11/22 00:12:14;;;;;;;0.40;0.40;;;;;;;7.85;76.53;98669.44;5169083;28;20054;-87
2022/11/22 00:14:44;;;;;;;0.30;0.30;;;;;;;7.78;76.82;98660.19;5165380;28;20037;-87
2022/11/22 00:17:15;;;;;;;0.30;0.30;;;;;;;7.87;76.38;98663.22;5171936;28;20346;-87
2022/11/22 00:19:45;;;;;;;0.40;0.40;;;;;;;7.87;76.19;98671.06;5184090;28;20720;-88
2022/11/22 00:22:16;;;;;;;0.30;0.30;;;;;;;7.97;76.30;98660.16;5183111;28;20097;-87
2022/11/22 00:24:47;;;;;;;0.30;0.30;;;;;;;7.94;75.94;98665.53;5183938;28;20050;-86
2022/11/22 00:27:19;;;;;;;0.40;0.40;;;;;;;7.95;76.42;98656.78;5174079;28;20041;-87
2022/11/22 00:29:49;;;;;;;0.30;0.30;;;;;;;7.92;76.31;98664.75;5172232;28;20088;-87
2022/11/22 00:32:20;;;;;;;0.30;0.30;;;;;;;7.85;76.51;98672.88;5155896;28;20066;-86
2022/11/22 00:34:50;;;;;;;0.30;0.30;;;;;;;7.77;76.91;98675.03;5150195;28;20049;-86
2022/11/22 00:37:21;;;;;;;0.28;0.28;;;;;;;7.80;76.47;98677.50;5167175;28;20041;-88
2022/11/22 00:39:51;;;;;;;0.30;0.30;;;;;;;7.78;76.86;98666.28;5169470;28;20081;-87
2022/11/22 00:42:22;;;;;;;0.30;0.30;;;;;;;7.77;76.72;98669.81;5165996;28;20045;-87
2022/11/22 00:44:52;;;;;;;0.30;0.30;;;;;;;7.77;76.85;98664.59;5151280;28;20030;-87
2022/11/22 00:47:23;;;;;;;0.50;0.50;;;;;;;7.81;76.78;98676.56;5155138;28;20042;-86
2022/11/22 00:49:53;;;;;;;0.80;0.80;;;;;;;7.85;76.95;98666.84;5167461;28;20018;-89
2022/11/22 00:52:24;;;;;;;0.30;0.30;;;;;;;7.86;76.90;98678.94;5184848;28;20057;-88
2022/11/22 00:54:54;;;;;;;0.30;0.30;;;;;;;7.83;76.59;98681.72;5168782;28;20033;-87
2022/11/22 00:57:25;;;;;;;0.30;0.30;;;;;;;7.83;77.15;98684.34;5136910;28;20332;-87
2022/11/22 00:59:55;;;;;;;0.30;0.30;;;;;;;7.80;77.16;98674.88;5132096;28;20030;-86
2022/11/22 01:02:26;;;;;;;0.30;0.30;;;;;;;7.80;77.10;98680.09;5177902;28;20037;-88
2022/11/22 01:04:56;;;;;;;0.50;0.50;;;;;;;7.88;76.63;98674.50;5166359;28;20112;-86
2022/11/22 01:07:27;;;;;;;0.30;0.30;;;;;;;7.86;76.75;98673.72;5145953;28;20038;-88
2022/11/22 01:09:57;;;;;;;0.47;0.47;;;;;;;7.85;77.01;98672.88;5155760;28;20060;-86
2022/11/22 01:12:27;;;;;;;0.52;0.52;;;;;;;7.86;77.05;98684.16;5140167;28;20260;-86
2022/11/22 01:14:58;;;;;;;0.82;0.82;;;;;;;7.86;76.48;98684.16;5171676;28;20030;-88
2022/11/22 01:17:29;;;;;;;0.45;0.45;;;;;;;7.92;76.66;98689.09;5173212;28;20057;-87
2022/11/22 01:19:59;;;;;;;0.45;0.45;;;;;;;7.91;76.39;98679.59;5166007;28;20030;-87
2022/11/22 01:22:30;;;;;;;0.30;0.30;;;;;;;7.98;76.17;98687.94;5153083;28;20053;-88
2022/11/22 01:25:00;;;;;;;0.52;0.52;;;;;;;7.87;76.85;98688.47;5168516;28;20668;-87
2022/11/22 01:27:31;;;;;;;0.30;0.30;;;;;;;7.83;76.75;98693.00;5171363;28;20098;-88
2022/11/22 01:30:03;;;;;;;0.32;0.32;;;;;;;7.87;76.56;98689.34;5169196;28;20073;-86
2022/11/22 01:32:33;;;;;;;0.30;0.30;;;;;;;7.86;76.77;98690.25;5168883;28;20033;-88
2022/11/22 01:35:04;;;;;;;0.30;0.30;;;;;;;7.86;76.58;98685.03;5164727;28;20062;-88
2022/11/22 01:37:34;;;;;;;0.30;0.30;;;;;;;7.81;76.60;98683.56;5152100;28;20054;-86
2022/11/22 01:40:06;;;;;;;0.55;0.55;;;;;;;7.78;76.80;98692.38;5154835;28;20045;-88
2022/11/22 01:42:50;;;;;;;0.30;0.30;;;;;;;7.84;76.57;98702.53;5163662;28;20060;-87
2022/11/22 01:45:30;;;;;;;0.25;0.25;;;;;;;7.82;76.67;98700.91;5168113;28;20014;-87
2022/11/22 01:48:15;;;;;;;0.30;0.30;;;;;;;7.76;76.48;98699.44;5175559;28;20022;-88
2022/11/22 01:50:50;;;;;;;0.30;0.30;;;;;;;7.78;76.83;98700.22;5187416;28;20117;-87
2022/11/22 01:53:29;;;;;;;0.30;0.30;;;;;;;7.76;76.18;98699.44;5172667;28;20030;-87
2022/11/22 01:56:03;;;;;;;0.30;0.30;;;;;;;7.78;76.67;98700.22;5148979;28;20018;-87
2022/11/22 01:58:36;;;;;;;0.30;0.30;;;;;;;7.78;76.44;98695.00;5168873;28;20053;-88
2022/11/22 02:01:07;;;;;;;0.40;0.40;;;;;;;7.73;76.53;98704.78;5185933;28;20108;-86
2022/11/22 02:03:41;;;;;;;0.30;0.30;;;;;;;7.69;76.38;98705.88;5166794;28;20034;-87
2022/11/22 02:06:13;;;;;;;0.30;0.30;;;;;;;7.67;76.65;98703.34;5184889;28;20110;-86
2022/11/22 02:08:56;;;;;;;0.50;0.50;;;;;;;7.69;76.51;98713.69;5184776;28;20042;-86
2022/11/22 02:11:27;;;;;;;1.65;1.20;;;;;;;7.64;76.41;98718.31;5185414;28;20057;-86
2022/11/22 02:13:58;;;;;;;4.15;1.20;;;;;;;7.67;76.62;98725.97;5151408;28;20148;-87
2022/11/22 02:16:28;;;;;;;0.80;0.80;;;;;;;7.62;76.38;98738.41;5165177;28;20046;-87
2022/11/22 02:18:59;;;;;;;0.50;0.50;;;;;;;7.63;76.57;98733.09;5169124;28;20034;-87
2022/11/22 02:21:29;;;;;;;1.17;0.93;;;;;;;7.68;76.36;98738.09;5164769;28;20748;-88
2022/11/22 02:24:23;;;;;;;0.55;0.55;;;;;;;7.64;76.17;98736.56;5136054;28;20030;-87
2022/11/22 02:26:54;;;;;;;;;;;;;;;7.69;76.03;98732.81;5171070;28;20072;-88
2022/11/22 02:29:24;;;;;;;0.68;0.68;;;;;;;7.59;76.48;98730.72;5155636;28;19910;-87
2022/11/22 02:31:55;;;;;;;0.57;0.57;;;;;;;7.64;76.43;98728.75;5134333;28;20607;-87
2022/11/22 02:34:25;;;;;;;0.30;0.30;;;;;;;7.45;77.06;98736.56;5175314;28;20042;-87
2022/11/22 02:36:56;;;;;;;0.47;0.47;;;;;;;7.46;76.59;98733.91;5173198;28;20042;-86
2022/11/22 02:39:29;;;;;;;1.38;0.98;;;;;;;7.37;77.15;98732.53;5171068;28;20180;-86
2022/11/22 02:42:00;;;;;;;;;;;;;;;7.32;77.22;98726.69;5171130;28;20034;-86
2022/11/22 02:44:31;;;;;;;8.35;0.95;;;;;;;7.37;77.21;98727.31;5169665;28;20003;-87
2022/11/22 02:47:01;;;;;;;0.52;0.52;;;;;;;7.38;76.76;98728.19;5167415;28;20121;-87
2022/11/22 02:49:32;;;;;;;2.28;0.73;;;;;;;7.39;76.57;98733.31;5169967;28;20084;-88
2022/11/22 02:52:02;;;;;;;0.75;0.60;;;;;;;7.44;77.02;98730.50;5170366;28;20041;-87
2022/11/22 02:54:33;;;;;;;0.20;0.20;;;;;;;7.27;77.17;98731.28;5184489;28;20060;-87
2022/11/22 02:57:03;;;;;;;0.30;0.30;;;;;;;7.28;76.95;98742.56;5184563;28;20069;-86
2022/11/22 02:59:33;;;;;;;3.10;1.10;;;;;;;7.20;76.78;98741.16;5178090;28;20026;-86
2022/11/22 03:02:04;;;;;;;0.30;0.30;;;;;;;7.15;77.03;98752.69;5154433;28;20124;-86
2022/11/22 03:04:34;;;;;;;0.28;0.28;;;;;;;7.13;77.05;98758.00;5171838;28;20039;-86
2022/11/22 03:07:05;;;;;;;3.90;2.13;;;;;;;7.10;77.71;98758.13;5167856;28;20038;-88
2022/11/22 03:09:36;;;;;;;0.30;0.30;;;;;;;7.01;77.80;98762.00;5154077;28;20025;-87
2022/11/22 03:12:06;;;;;;;2.00;1.63;;;;;;;7.06;77.46;98761.78;5152508;28;20050;-86
2022/11/22 03:14:37;;;;;;;0.52;0.52;;;;;;;7.12;77.02;98769.34;5172938;28;20046;-86
2022/11/22 03:17:07;;;;;;;0.30;0.30;;;;;;;7.02;77.02;98771.50;5169454;28;20034;-87
2022/11/22 03:19:37;;;;;;;2.85;1.85;;;;;;;7.02;76.94;98768.91;5134912;28;20275;-87
2022/11/22 03:22:08;;;;;;;1.48;0.82;;;;;;;7.03;77.02;98769.72;5157154;28;20042;-87
2022/11/22 03:24:39;;;;;;;1.10;0.93;;;;;;;7.12;76.97;98782.38;5188777;28;20210;-86
2022/11/22 03:27:09;;;;;;;0.38;0.38;;;;;;;7.16;76.49;98780.47;5141704;28;20041;-87
2022/11/22 03:29:40;;;;;;;3.20;1.30;;;;;;;7.15;76.09;98779.59;5158433;28;20045;-87
2022/11/22 03:32:10;;;;;;;0.28;0.28;;;;;;;7.22;76.53;98788.88;5176280;28;20045;-85
2022/11/22 03:34:41;;;;;;;0.40;0.40;;;;;;;7.15;76.36;98797.03;5180891;28;20034;-86
2022/11/22 03:37:11;;;;;;;0.70;0.70;;;;;;;7.04;76.60;98794.91;5153310;28;20076;-88
2022/11/22 03:39:42;;;;;;;0.60;0.60;;;;;;;7.05;76.66;98796.59;5174821;28;20057;-87
2022/11/22 03:42:12;;;;;;;0.30;0.30;;;;;;;7.14;76.42;98803.16;5179103;28;20494;-86
2022/11/22 03:44:43;;;;;;;0.57;0.57;;;;;;;7.13;76.24;98798.84;5154895;28;20034;-87
2022/11/22 03:47:13;;;;;;;0.25;0.25;;;;;;;7.08;76.28;98792.09;5153428;28;20114;-87
2022/11/22 03:49:44;;;;;;;1.55;0.80;;;;;;;7.08;76.76;98799.06;5165614;28;20132;-88
2022/11/22 03:52:14;;;;;;;0.88;0.88;;;;;;;7.13;76.02;98794.50;5136741;28;20033;-87
2022/11/22 03:54:44;;;;;;;0.45;0.45;;;;;;;7.08;76.01;98804.28;5152289;28;20038;-88
2022/11/22 03:57:16;;;;;;;0.50;0.50;;;;;;;7.08;75.72;98796.44;5152411;28;20099;-89
2022/11/22 03:59:46;;;;;;;0.47;0.47;;;;;;;7.04;75.74;98800.13;5149467;28;20041;-87
2022/11/22 04:02:17;;;;;;;0.30;0.30;;;;;;;6.94;75.71;98794.47;5168396;28;20222;-87
2022/11/22 04:04:47;;;;;;;0.40;0.40;;;;;;;6.88;75.49;98799.91;5166046;28;20026;-88
2022/11/22 04:07:17;;;;;;;0.77;0.77;;;;;;;6.86;75.24;98802.59;5165481;28;20408;-86
2022/11/22 04:09:48;;;;;;;0.30;0.30;;;;;;;7.07;75.59;98798.22;5151614;28;20606;-87
2022/11/22 04:12:19;;;;;;;1.58;1.05;;;;;;;6.88;75.39;98800.78;5167234;28;20179;-88
2022/11/22 04:15:07;;;;;;;0.30;0.30;;;;;;;6.85;75.21;98800.91;5182683;28;20061;-86
2022/11/22 04:17:44;;;;;;;16.65;0.88;;;;;;;6.89;75.06;98799.88;5147702;28;20049;-86
2022/11/22 04:23:09;;;;;;;0.85;0.85;;;;;;;6.91;74.76;98808.44;5166705;28;20291;-88
2022/11/22 04:25:42;;;;;;;7.57;1.75;;;;;;;6.86;74.69;98813.03;5186589;28;20453;-87
2022/11/22 04:28:15;;;;;;;0.35;0.35;;;;;;;6.93;74.92;98806.63;5182153;28;20074;-87
2022/11/22 04:33:36;;;;;;;0.30;0.30;;;;;;;6.86;74.80;98817.41;5164299;28;20435;-86
2022/11/22 04:36:07;;;;;;;0.95;0.95;;;;;;;6.81;74.68;98820.19;5153585;28;20123;-87
2022/11/22 04:38:37;;;;;;;0.68;0.68;;;;;;;6.88;74.98;98823.38;5165267;28;20562;-86
2022/11/22 04:41:08;;;;;;;0.60;0.60;;;;;;;6.97;74.60;98829.97;5147971;28;20045;-87
2022/11/22 04:46:30;;;;;;;1.25;1.23;;;;;;;6.91;74.51;98821.50;5165824;28;20785;-88
2022/11/22 04:49:00;;;;;;;2.08;1.20;;;;;;;6.95;74.68;98822.19;5140825;28;20038;-88
2022/11/22 04:54:20;;;;;;;0.32;0.32;;;;;;;6.87;75.17;98829.50;5183600;28;20637;-88
2022/11/22 04:56:50;;;;;;;0.85;0.85;;;;;;;6.87;75.04;98827.75;5179008;28;20065;-87
2022/11/22 04:59:21;;;;;;;0.57;0.57;;;;;;;6.86;75.37;98822.63;5166066;28;20431;-87
2022/11/22 05:01:51;;;;;;;0.85;0.85;;;;;;;6.93;74.64;98831.88;5167197;28;20053;-88
2022/11/22 05:04:22;;;;;;;0.45;0.45;;;;;;;6.84;73.74;98822.66;5171086;28;20576;-86
2022/11/22 05:06:52;;;;;;;1.05;0.95;;;;;;;6.68;73.86;98824.22;5161659;28;20037;-85
2022/11/22 05:09:23;;;;;;;0.38;0.38;;;;;;;6.68;74.20;98821.59;5167609;28;20046;-82
2022/11/22 05:11:53;;;;;;;0.30;0.30;;;;;;;6.80;74.37;98826.31;5177715;28;20041;-87
2022/11/22 05:14:24;;;;;;;0.70;0.70;;;;;;;6.85;74.40;98821.75;5187860;28;20034;-85
2022/11/22 05:16:54;;;;;;;0.85;0.85;;;;;;;6.81;74.11;98830.63;5170677;28;20050;-84
2022/11/22 05:19:24;;;;;;;0.43;0.43;;;;;;;6.86;74.20;98835.66;5161991;28;20042;-85
2022/11/22 05:21:55;;;;;;;0.30;0.30;;;;;;;6.78;74.38;98826.38;5170736;28;20041;-85
2022/11/22 05:24:25;;;;;;;0.30;0.30;;;;;;;6.84;74.24;98830.47;5177366;28;20577;-87
2022/11/22 05:26:56;;;;;;;1.45;1.05;;;;;;;6.86;74.29;98828.66;5146800;28;20738;-85
2022/11/22 05:29:26;;;;;;;0.45;0.45;;;;;;;6.83;74.46;98838.38;5161965;28;20038;-85
2022/11/22 05:31:57;;;;;;;0.45;0.45;;;;;;;6.78;74.17;98841.19;5161999;28;20117;-86
2022/11/22 05:34:27;;;;;;;0.30;0.30;;;;;;;6.76;74.35;98845.59;5165071;28;20030;-86
2022/11/22 05:36:58;;;;;;;4.72;1.85;;;;;;;6.83;74.28;98848.81;5131470;28;20031;-86
2022/11/22 05:39:28;;;;;;;0.80;0.68;;;;;;;6.75;73.74;98846.50;5157795;28;20487;-86
2022/11/22 05:41:58;;;;;;;0.80;0.80;;;;;;;6.63;74.33;98849.63;5168193;28;20363;-86
2022/11/22 05:44:29;;;;;;;1.02;0.98;;;;;;;6.74;74.41;98855.22;5143395;28;20037;-86
2022/11/22 05:46:59;;;;;;;1.77;1.65;;;;;;;6.79;74.77;98853.31;5173857;28;20045;-85
2022/11/22 05:49:30;;;;;;;1.02;1.00;;;;;;;6.84;74.64;98847.91;5164584;28;20590;-86
2022/11/22 05:52:01;;;;;;;0.40;0.40;;;;;;;6.85;74.30;98854.81;5164666;28;20184;-86
2022/11/22 05:54:32;;;;;;;0.65;0.65;;;;;;;6.74;73.54;98858.69;5153806;28;20026;-85
2022/11/22 05:57:02;;;;;;;0.47;0.47;;;;;;;6.67;74.24;98854.66;5181008;28;20042;-85
2022/11/22 05:59:33;;;;;;;0.30;0.30;;;;;;;6.73;74.28;98850.97;5175614;28;20231;-87
2022/11/22 06:02:03;;;;;;;0.30;0.30;;;;;;;6.73;74.56;98848.34;5162084;28;20187;-86
2022/11/22 06:04:34;;;;;;;0.50;0.50;;;;;;;6.79;74.39;98858.50;5165362;28;20585;-86
2022/11/22 06:07:04;;;;;;;0.30;0.30;;;;;;;6.75;74.21;98851.72;5179680;28;20035;-85
2022/11/22 06:09:35;;;;;;;0.30;0.30;;;;;;;6.74;73.45;98860.44;5146186;28;20586;-86
2022/11/22 06:12:05;;;;;;;0.75;0.75;;;;;;;6.71;73.45;98853.59;5147326;28;20181;-87
2022/11/22 06:14:36;;;;;;;1.65;0.82;;;;;;;6.72;73.65;98862.28;5166658;28;20029;-86
2022/11/22 06:17:07;;;;;;;0.30;0.30;;;;;;;6.68;74.03;98855.50;5164801;28;20041;-86
2022/11/22 06:19:37;;;;;;;0.73;0.73;;;;;;;6.63;73.89;98852.22;5152790;28;20202;-86
2022/11/22 06:22:09;;;;;;;0.50;0.50;;;;;;;6.73;73.67;98861.38;5165930;28;20053;-87
2022/11/22 06:24:41;;;;;;;0.50;0.50;;;;;;;6.61;74.48;98867.94;5152707;28;20022;-85
2022/11/22 06:27:11;;;;;;;0.45;0.45;;;;;;;6.67;74.08;98866.81;5150542;28;20117;-85
2022/11/22 06:29:42;;;;;;;0.30;0.30;;;;;;;6.63;74.58;98873.91;5149424;28;20093;-86
2022/11/22 06:32:12;;;;;;;0.40;0.40;;;;;;;6.65;74.23;98871.28;5165837;28;20041;-86
2022/11/22 06:34:43;;;;;;;0.80;0.80;;;;;;;6.63;74.59;98865.25;5154443;28;20169;-85
2022/11/22 06:37:15;;;;;;;0.38;0.38;;;;;;;6.67;74.03;98870.28;5182377;28;20300;-86
2022/11/22 06:39:45;;;;;;;0.40;0.40;;;;;;;6.69;74.16;98872.81;5168376;28;20038;-86
2022/11/22 06:42:15;;;;;;;0.30;0.30;;;;;;;6.71;74.38;98881.44;5176773;28;21082;-86
2022/11/22 06:44:46;;;;;;;0.30;0.30;;;;;;;6.69;74.49;98872.81;5152199;28;20045;-85
2022/11/22 06:47:16;;;;;;;0.50;0.50;;;;;;;6.75;74.20;98867.34;5179135;28;20045;-85
2022/11/22 06:49:47;;;;;;;1.38;1.27;;;;;;;6.74;74.23;98868.25;5181530;28;20291;-85
2022/11/22 06:52:17;;;;;;;0.30;0.30;;;;;;;6.77;73.86;98871.63;5161532;28;20046;-86
2022/11/22 06:54:48;;;;;;;0.30;0.30;;;;;;;6.71;74.02;98873.63;5177425;28;20058;-85
2022/11/22 06:57:19;;;;;;;1.90;1.15;;;;;;;6.70;73.89;98866.72;5186514;28;20042;-85
2022/11/22 06:59:49;;;;;;;1.27;1.13;;;;;;;6.61;73.46;98874.00;5184505;28;20037;-86
2022/11/22 07:02:20;;;;;;;0.38;0.38;;;;;;;6.68;73.97;98876.34;5159315;28;20033;-85
2022/11/22 07:04:50;;;;;;;0.20;0.20;;;;;;;6.72;73.50;98877.94;5165063;28;20056;-85
2022/11/22 07:07:21;;;;;;;0.38;0.38;;;;;;;6.65;73.83;98881.69;5149032;28;20034;-85
2022/11/22 07:09:51;;;;;;;0.90;0.90;;;;;;;6.68;73.13;98886.75;5165723;28;20048;-85
2022/11/22 07:12:21;;;;;;;0.30;0.30;;;;;;;6.65;73.89;98892.94;5168476;28;20045;-86
2022/11/22 07:14:52;;;;;;;0.70;0.70;;;;;;;6.67;73.42;98890.28;5151316;28;20030;-85
2022/11/22 07:17:22;;;;;;;0.30;0.30;;;;;;;6.63;74.05;98899.97;5168458;28;20128;-85
2022/11/22 07:19:53;;;;;;;0.88;0.88;;;;;;;6.61;73.46;98902.66;5168137;28;20054;-87
2022/11/22 07:22:23;;;;;;;1.85;1.75;;;;;;;6.56;73.12;98904.59;5166364;28;20056;-85
2022/11/22 07:24:54;;;;;;;0.38;0.38;;;;;;;6.54;72.08;98901.22;5149605;28;20026;-86
2022/11/22 07:27:24;;;;;;;0.88;0.88;;;;;;;6.59;72.97;98906.25;5165508;28;20109;-85
2022/11/22 07:29:54;;;;;;;9.63;1.75;;;;;;;6.60;73.23;98903.56;5152776;28;20029;-86
2022/11/22 07:32:25;;;;;;;0.40;0.40;;;;;;;6.63;72.92;98899.16;5180947;28;20049;-86
2022/11/22 07:34:55;;;;;;;0.50;0.50;;;;;;;6.57;73.12;98906.28;5182072;28;20034;-85
2022/11/22 07:37:26;;;;;;;0.40;0.40;;;;;;;6.68;73.11;98907.63;5146423;28;20049;-86
2022/11/22 07:39:56;;;;;;;0.30;0.30;;;;;;;6.54;73.15;98914.25;5166270;28;20077;-87
2022/11/22 07:42:27;;;;;;;0.30;0.30;;;;;;;6.57;73.58;98910.66;5164862;28;20046;-86
2022/11/22 07:44:57;;;;;;;3.95;1.50;;;;;;;6.63;72.66;98910.41;5148181;28;20038;-86
2022/11/22 07:47:27;;;;;;;0.47;0.47;;;;;;;6.57;72.79;98921.91;5169147;28;20057;-85
2022/11/22 07:49:58;;;;;;;0.73;0.73;;;;;;;6.61;73.01;98920.91;5165998;28;20562;-86
2022/11/22 07:52:28;;;;;;;0.30;0.30;;;;;;;6.45;72.17;98919.81;5165875;28;20046;-85
2022/11/22 07:54:59;;;;;;;0.50;0.50;;;;;;;6.54;73.10;98923.78;5165281;28;20096;-86
2022/11/22 07:57:29;;;;;;;0.30;0.30;;;;;;;6.49;71.59;98921.38;5149049;28;20043;-85
2022/11/22 08:00:00;;;;;;;0.30;0.30;;;;;;;6.49;72.55;98921.38;5159908;28;20507;-85
2022/11/22 08:02:30;;;;;;;0.30;0.30;;;;;;;6.54;73.08;98922.06;5160783;28;20054;-87
2022/11/22 08:05:01;;;;;;;0.30;0.30;;;;;;;6.45;72.31;98925.00;5166777;28;20041;-86
2022/11/22 08:07:31;;;;;;;0.30;0.30;;;;;;;6.50;72.07;98923.06;5160958;28;20026;-86
2022/11/22 08:10:03;;;;;;;0.70;0.70;;;;;;;6.46;71.52;98924.09;5166468;28;20038;-86
2022/11/22 08:12:33;;;;;;;0.30;0.30;;;;;;;6.42;72.69;98932.94;5163550;28;20096;-85
2022/11/22 08:15:04;;;;;;;3.03;2.65;;;;;;;6.50;72.29;98936.09;5150517;28;20026;-86
2022/11/22 08:17:35;;;;;;;0.40;0.40;;;;;;;6.42;72.44;98933.81;5147476;28;20058;-88
2022/11/22 08:20:08;;;;;;;1.40;1.33;;;;;;;6.51;72.32;98935.19;5163018;28;20762;-85
2022/11/22 08:22:39;;;;;;;0.30;0.30;;;;;;;6.44;72.59;98941.56;5144956;28;20054;-85
2022/11/22 08:25:13;;;;;;;0.40;0.40;;;;;;;6.50;72.41;98953.50;5162904;28;20117;-86
2022/11/22 08:27:43;;;;;;;0.60;0.60;;;;;;;6.41;72.83;98952.94;5162228;28;20046;-85
2022/11/22 08:30:14;;;;;;;0.60;0.60;;;;;;;6.46;72.15;98950.16;5165694;28;20486;-85
2022/11/22 08:32:44;;;;;;;0.30;0.30;;;;;;;6.48;72.78;98953.56;5163522;28;20050;-85
2022/11/22 08:35:15;;;;;;;0.77;0.77;;;;;;;6.49;72.83;98955.25;5166059;28;20065;-86
2022/11/22 08:37:45;;;;;;;0.30;0.30;;;;;;;6.44;71.82;98967.59;5187912;28;20026;-85
2022/11/22 08:40:16;;;;;;;0.55;0.55;;;;;;;6.50;72.89;98961.31;5176951;28;20049;-85
2022/11/22 08:42:46;;;;;;;0.30;0.30;;;;;;;6.44;72.75;98963.25;5188059;28;20536;-85
2022/11/22 08:45:17;;;;;;;0.30;0.30;;;;;;;6.50;72.82;98956.94;5164687;28;20053;-85
2022/11/22 08:47:47;;;;;;;0.30;0.30;;;;;;;6.44;72.20;98967.59;5165605;28;20040;-86
2022/11/22 08:50:18;;;;;;;0.30;0.30;;;;;;;6.56;72.57;98964.53;5161445;28;20185;-87
2022/11/22 08:52:48;;;;;;;1.58;1.30;;;;;;;6.55;71.81;98961.97;5180985;28;20099;-85
2022/11/22 08:55:19;;;;;;;0.38;0.38;;;;;;;6.50;72.27;98967.38;5166431;28;20197;-86
2022/11/22 08:57:49;;;;;;;0.30;0.30;;;;;;;6.53;72.03;98959.44;5145433;28;20050;-86
2022/11/22 09:00:20;;;;;;;0.45;0.45;;;;;;;6.50;71.88;98953.50;5162736;28;20064;-86
2022/11/22 09:02:50;;;;;;;1.67;1.58;;;;;;;6.51;72.71;98963.84;5179632;28;20053;-84
2022/11/22 09:05:21;;;;;;;0.30;0.30;;;;;;;6.53;72.35;98961.22;5164010;28;20058;-85
2022/11/22 09:07:51;;;;;;;0.30;0.30;;;;;;;6.57;71.43;98966.22;5160982;28;20057;-86
2022/11/22 09:10:21;;;;;;;0.30;0.30;;;;;;;6.63;71.37;98966.91;5188949;28;20031;-86
2022/11/22 09:12:52;;;;;;;0.30;0.30;;;;;;;6.53;71.83;98966.41;5176755;28;20091;-86
2022/11/22 09:15:23;;;;;;;1.60;1.50;;;;;;;6.56;71.58;98961.06;5163227;28;20148;-86
2022/11/22 09:18:02;;;;;;;0.50;0.50;;;;;;;6.57;72.23;98961.00;5148464;28;20058;-86
2022/11/22 09:20:33;;;;;;;0.30;0.30;;;;;;;6.60;72.18;98968.72;5179312;28;20026;-85
2022/11/22 09:23:03;;;;;;;0.50;0.50;;;;;;;6.67;71.93;98974.53;5146656;28;20034;-86
2022/11/22 09:25:34;;;;;;;0.30;0.30;;;;;;;6.67;72.29;98966.72;5165250;28;20164;-85
2022/11/22 09:28:04;;;;;;;2.13;1.98;;;;;;;6.70;72.05;98960.53;5148489;28;20040;-85
2022/11/22 09:30:35;;;;;;;0.30;0.30;;;;;;;6.75;71.85;98969.88;5161362;28;20122;-85
2022/11/22 09:33:05;;;;;;;0.50;0.50;;;;;;;6.76;72.03;98974.19;5161093;28;20133;-86
2022/11/22 09:35:36;;;;;;;0.50;0.50;;;;;;;6.85;72.18;98972.97;5165044;28;20116;-86
2022/11/22 09:38:07;;;;;;;0.30;0.30;;;;;;;6.80;72.40;98974.03;5165572;28;20084;-85
2022/11/22 09:40:37;;;;;;;0.47;0.47;;;;;;;6.91;71.68;98979.69;5147719;28;20022;-86
2022/11/22 09:43:29;;;;;;;0.40;0.40;;;;;;;6.98;71.51;98977.69;5158396;28;20038;-85
2022/11/22 09:46:14;;;;;;;0.45;0.45;;;;;;;7.00;71.92;98981.06;5203540;28;20042;-85
2022/11/22 09:49:13;;;;;;;0.30;0.30;;;;;;;6.98;72.60;98982.91;5187140;28;20093;-84
2022/11/22 09:51:55;;;;;;;0.82;0.82;;;;;;;7.03;71.92;98976.56;5162245;28;20073;-85
2022/11/22 09:54:33;;;;;;;0.65;0.65;;;;;;;7.15;72.09;98972.63;5186392;28;20133;-85
2022/11/22 09:57:12;;;;;;;0.30;0.30;;;;;;;7.24;72.25;98966.19;5168536;28;20125;-86
2022/11/22 09:59:46;;;;;;;0.95;0.95;;;;;;;7.12;71.83;98959.72;5160278;28;20037;-86
2022/11/22 10:02:24;;;;;;;0.98;0.93;;;;;;;7.14;71.29;98962.25;5175909;28;20042;-85
2022/11/22 10:05:02;;;;;;;0.30;0.30;;;;;;;7.17;72.14;98952.53;5199435;28;20513;-86
2022/11/22 10:08:20;;;;;;;0.40;0.40;;;;;;;7.23;71.76;98949.69;5167317;28;20030;-85
2022/11/22 10:10:54;;;;;;;0.30;0.30;;;;;;;7.15;70.62;98946.53;5124639;28;20053;-86
2022/11/22 10:13:50;;;;;;;0.30;0.30;;;;;;;7.26;71.29;98953.94;5141821;28;20403;-86
2022/11/22 10:16:39;;;;;;;0.70;0.70;;;;;;;7.25;71.63;98950.47;5166060;28;20037;-86
2022/11/22 10:19:26;;;;;;;0.30;0.30;;;;;;;7.29;72.02;98955.56;5152250;28;20045;-85
2022/11/22 10:21:57;;;;;;;0.30;0.30;;;;;;;7.30;71.83;98949.44;5165081;28;20049;-85
2022/11/22 10:24:28;;;;;;;0.30;0.30;;;;;;;7.35;71.84;98953.56;5192117;28;20121;-86
2022/11/22 10:26:59;;;;;;;0.40;0.40;;;;;;;7.40;71.89;98953.34;5153839;28;20607;-86
2022/11/22 10:29:53;;;;;;;0.30;0.30;;;;;;;7.38;71.58;98944.75;5166153;28;20400;-86
2022/11/22 10:32:48;;;;;;;0.30;0.30;;;;;;;7.46;71.95;98934.84;5163144;28;20057;-85
2022/11/22 10:35:33;;;;;;;0.50;0.50;;;;;;;7.41;72.02;98934.16;5150783;28;20072;-84
2022/11/22 10:38:28;;;;;;;0.30;0.30;;;;;;;7.45;71.50;98924.44;5148127;28;20057;-85
2022/11/22 10:41:11;;;;;;;0.20;0.20;;;;;;;7.49;71.66;98926.84;5165845;28;20038;-86
2022/11/22 10:43:50;;;;;;;4.30;1.23;;;;;;;7.51;71.83;98924.19;5181697;28;20086;-86
2022/11/22 10:46:46;;;;;;;0.30;0.30;;;;;;;7.44;71.88;98923.59;5166426;28;20041;-85
2022/11/22 10:49:26;;;;;;;0.38;0.38;;;;;;;7.52;71.92;98915.47;5163946;28;20038;-85
2022/11/22 10:52:05;;;;;;;0.30;0.30;;;;;;;7.61;71.41;98917.63;5172393;28;20042;-86
2022/11/22 10:54:56;;;;;;;0.55;0.55;;;;;;;7.60;71.48;98907.28;5169969;28;20526;-86
2022/11/22 10:57:56;;;;;;;0.30;0.30;;;;;;;7.68;71.21;98899.94;5196355;28;20038;-85
2022/11/22 11:00:30;;;;;;;0.30;0.30;;;;;;;7.71;71.28;98887.59;5191942;28;20084;-85
2022/11/22 11:03:10;;;;;;;0.20;0.20;;;;;;;7.71;72.02;98889.38;5183095;28;20060;-85
2022/11/22 11:05:44;;;;;;;0.32;0.32;;;;;;;7.69;71.38;98879.00;5170158;28;20046;-85
2022/11/22 11:08:26;;;;;;;0.40;0.40;;;;;;;7.76;72.20;98887.41;5148125;28;20044;-84
2022/11/22 11:10:58;;;;;;;0.40;0.40;;;;;;;7.78;71.44;98880.34;5162250;28;20049;-85
2022/11/22 11:13:35;;;;;;;0.30;0.30;;;;;;;7.79;71.50;98884.66;5153302;28;20034;-86
2022/11/22 11:16:09;;;;;;;0.32;0.32;;;;;;;7.75;71.21;98877.88;5165073;28;20122;-85
2022/11/22 11:19:09;;;;;;;0.40;0.40;;;;;;;7.80;71.33;98877.66;5149008;28;20030;-85
2022/11/22 11:21:40;;;;;;;0.30;0.30;;;;;;;7.80;70.80;98881.16;5154207;28;20050;-84
2022/11/22 11:24:15;;;;;;;0.30;0.30;;;;;;;7.82;71.35;98881.06;5150299;28;20072;-86
2022/11/22 11:26:57;;;;;;;0.40;0.40;;;;;;;7.92;70.53;98877.13;5166103;28;20057;-84
2022/11/22 11:29:59;;;;;;;0.30;0.30;;;;;;;7.94;70.29;98877.03;5163738;28;20037;-85
2022/11/22 11:32:50;;;;;;;0.30;0.30;;;;;;;7.99;70.85;98873.31;5164599;28;20038;-85
2022/11/22 11:35:24;;;;;;;0.30;0.30;;;;;;;8.04;71.31;98870.50;5184967;28;20029;-86
2022/11/22 11:37:54;;;;;;;2.13;1.48;;;;;;;8.10;71.00;98864.97;5163066;28;20034;-85
2022/11/22 11:40:31;;;;;;;0.30;0.30;;;;;;;8.11;70.95;98864.06;5164700;28;20034;-87
2022/11/22 11:43:22;;;;;;;0.30;0.30;;;;;;;8.13;71.05;98866.59;5165681;28;20053;-86
2022/11/22 11:45:53;;;;;;;0.20;0.20;;;;;;;8.08;70.78;98865.97;5158347;28;20023;-86
2022/11/22 11:48:33;;;;;;;0.60;0.60;;;;;;;8.15;70.60;98872.59;5163221;28;20011;-86
2022/11/22 11:51:13;;;;;;;0.30;0.30;;;;;;;8.15;70.61;98868.19;5145664;28;20097;-86
2022/11/22 11:54:14;;;;;;;0.30;0.30;;;;;;;8.15;69.75;98875.22;5163163;28;20053;-87
2022/11/22 11:56:45;;;;;;;0.20;0.20;;;;;;;8.20;69.65;98870.59;5161714;28;20037;-86
2022/11/22 11:59:42;;;;;;;0.30;0.30;;;;;;;8.19;69.80;98869.78;5162173;28;20026;-86
2022/11/22 12:02:20;;;;;;;0.30;0.30;;;;;;;8.21;68.60;98872.31;5158315;28;20034;-86
2022/11/22 12:04:51;;;;;;;0.20;0.20;;;;;;;8.22;68.07;98874.00;5166649;28;20033;-86
2022/11/22 12:07:44;;;;;;;0.30;0.30;;;;;;;8.27;69.27;98876.41;5171773;28;20026;-86
2022/11/22 12:10:46;;;;;;;0.60;0.57;;;;;;;8.28;67.27;98862.41;5195854;28;20058;-86
2022/11/22 12:13:35;;;;;;;0.30;0.30;;;;;;;8.26;67.78;98865.13;5160803;28;20046;-86
2022/11/22 12:16:18;;;;;;;0.20;0.20;;;;;;;8.34;67.81;98864.72;5139251;28;20035;-86
2022/11/22 12:19:15;;;;;;;0.30;0.30;;;;;;;8.34;67.86;98862.13;5144644;28;20084;-85
2022/11/22 12:22:18;;;;;;;0.60;0.60;;;;;;;8.34;67.08;98867.34;5177790;28;20069;-86
2022/11/22 12:25:09;;;;;;;0.70;0.70;;;;;;;8.38;67.23;98874.13;5180359;28;20565;-86